2MeteoStar Phoenix Sky Harbor International Airport FORECAST
Forecast For: Phoenix, Arizona
Clear
 
Currently: Phoenix Sky Harbor International Airport 19:51 GMT
Weather:Clear Humidity:17%
Temperature:41 ° C Wind:WSW 7 Gusting to 26 kph
Dew Point:12 ° C Pressure:1006 mb
Feels Like:39 ° C Visibility:16 km
Print Legend
24 Hour Weather Trace
Regional Observations
Daily Climate Plot
Monthly Climate Plot

Regional Radar Image
National Radar Image
Regional Satellite Image
National Satellite Image
Short Range Forecast Trace
Long Range Forecast Trace
NWS Forecast Discussion
16 Day Forecast
Radar For: Phoenix,AZ 06/23/2017 20:42 GMT
CLICK FOR LOOP




METAR:KPHX 231951Z 24004G14KT 10SM FEW120 41/12 A2977 RMK AO2 SLP057 T04060117 =
TAF:

TAFPHX
TAF
KPHX 231720Z 2318/2418 26007KT P6SM SKC
FM232200 27013G19KT P6SM FEW250
FM240400 29007KT P6SM SCT220
FM241200 10005KT P6SM SCT200 =

NWS Forecast for:
Greater Phoenix Area


Visit the MeteoStar Home Page